createdAt,value
2022-08-07T08:15:57.966Z,1115.53
2022-08-07T08:22:02.995Z,1088.73
2022-08-07T08:24:57.288Z,1090.43
2022-08-07T08:27:44.043Z,1090.80
2022-08-07T08:30:32.253Z,1099.67
2022-08-07T08:33:15.219Z,1104.33
2022-08-07T08:35:51.760Z,1093.73
2022-08-07T08:38:29.380Z,1092.10
2022-08-07T08:41:09.715Z,1084.70
2022-08-07T08:43:58.982Z,1077.77
2022-08-07T08:46:49.131Z,1082.13
2022-08-07T08:49:32.674Z,1088.67
2022-08-07T08:52:53.855Z,1088.83
2022-08-07T08:55:54.371Z,1089.40
2022-08-07T08:58:28.977Z,1077.40
2022-08-07T09:01:18.498Z,1080.53
2022-08-07T09:03:55.629Z,1084.37
2022-08-07T09:06:51.005Z,1090.00
2022-08-07T09:09:43.779Z,1086.83
2022-08-07T09:12:40.689Z,1089.90
2022-08-07T09:16:23.130Z,1085.50
2022-08-07T09:18:53.182Z,1094.87
2022-08-07T09:21:34.152Z,1098.83
2022-08-07T09:24:58.994Z,1092.00
2022-08-07T09:27:59.701Z,1088.00
2022-08-07T09:30:48.169Z,1083.20
2022-08-07T09:33:52.572Z,1090.97
2022-08-07T09:36:37.369Z,1089.40
2022-08-07T09:39:55.560Z,1086.93
2022-08-07T09:42:53.875Z,1080.00
2022-08-07T09:47:50.659Z,1074.40
2022-08-07T09:50:02.026Z,1094.40
2022-08-07T09:52:15.720Z,1081.63
2022-08-07T09:55:17.326Z,1082.20
2022-08-07T09:58:16.959Z,1085.93
2022-08-07T10:01:08.512Z,1085.50
2022-08-07T10:04:05.809Z,1091.43
2022-08-07T10:07:25.835Z,1080.80
2022-08-07T10:10:12.100Z,1083.87
2022-08-07T10:13:11.035Z,1085.13
2022-08-07T10:16:24.413Z,1081.30
2022-08-07T10:19:30.127Z,1081.80
2022-08-07T10:22:15.833Z,1083.03
2022-08-07T10:25:08.404Z,1082.23
2022-08-07T10:27:51.372Z,1080.23
2022-08-07T10:30:30.314Z,1088.33
2022-08-07T10:34:05.805Z,1085.07
2022-08-07T10:36:41.869Z,1087.67
2022-08-07T10:39:41.518Z,1085.67
2022-08-07T10:42:48.026Z,1083.33
2022-08-07T10:45:57.247Z,1090.00
2022-08-07T10:48:41.185Z,1095.10
2022-08-07T10:52:02.352Z,1093.07
2022-08-07T10:54:38.183Z,1096.67
2022-08-07T10:57:34.276Z,1100.30
2022-08-07T11:00:36.172Z,1101.07
2022-08-07T11:03:11.181Z,1105.30
2022-08-07T11:05:58.511Z,1096.27
2022-08-07T11:08:55.782Z,1095.67
2022-08-07T11:11:35.766Z,1093.00
2022-08-07T11:14:45.087Z,1105.40
2022-08-07T11:17:10.722Z,1101.93
2022-08-07T11:19:52.613Z,1107.13
2022-08-07T11:22:44.117Z,1112.50
2022-08-07T11:25:48.176Z,1118.97
2022-08-07T11:28:28.235Z,1117.27
2022-08-07T11:31:15.974Z,1116.50
2022-08-07T11:34:00.769Z,1111.43
2022-08-07T11:36:49.621Z,1123.43
2022-08-07T11:40:00.674Z,1115.33
2022-08-07T11:43:05.890Z,1124.57
2022-08-07T11:46:17.070Z,1122.90
2022-08-07T11:49:50.804Z,1120.13
2022-08-07T11:51:50.610Z,1126.10
2022-08-07T11:54:55.084Z,1128.33
2022-08-07T11:57:59.791Z,1120.80
2022-08-07T12:01:02.654Z,1122.73
2022-08-07T12:03:47.641Z,1126.97
2022-08-07T12:06:37.693Z,1128.23
2022-08-07T12:09:23.345Z,1132.63
2022-08-07T12:12:12.311Z,1126.40
2022-08-07T12:15:01.175Z,1132.73
2022-08-07T12:17:58.962Z,1138.10
2022-08-07T12:20:42.417Z,1135.90
2022-08-07T12:24:05.032Z,1134.60
2022-08-07T12:26:30.861Z,1134.80
2022-08-07T12:29:37.140Z,1140.77
2022-08-07T12:32:23.475Z,1139.47
2022-08-07T12:34:57.257Z,1142.00
2022-08-07T12:38:09.450Z,1143.57
2022-08-07T12:40:46.669Z,1136.03
2022-08-07T12:44:01.533Z,1147.73
2022-08-07T12:46:26.399Z,1142.13
2022-08-07T12:49:44.188Z,1141.10
2022-08-07T12:52:19.516Z,1137.43
2022-08-07T12:55:09.748Z,1128.13
2022-08-07T12:58:01.367Z,1136.17
2022-08-07T13:00:50.442Z,1140.43
2022-08-07T13:04:00.559Z,1142.30
2022-08-07T13:07:01.075Z,1150.23
2022-08-07T13:10:19.679Z,1147.00
2022-08-07T13:13:46.762Z,1159.57
2022-08-07T13:16:46.842Z,1164.03
2022-08-07T13:19:50.519Z,1163.13
2022-08-07T13:22:37.274Z,1171.80
2022-08-07T13:25:28.841Z,1183.93
2022-08-07T13:28:13.411Z,1185.10
2022-08-07T13:31:01.519Z,1180.67
2022-08-07T13:34:32.661Z,1180.10
2022-08-07T13:36:51.958Z,1167.97
2022-08-07T13:40:33.785Z,1158.40
2022-08-07T13:42:24.898Z,1135.97
2022-08-07T13:45:21.069Z,1158.20
2022-08-07T13:48:05.879Z,1161.63
2022-08-07T13:50:45.103Z,1152.27
2022-08-07T13:53:59.719Z,1140.60
2022-08-07T13:56:36.037Z,1138.83
2022-08-07T13:59:24.463Z,1140.17
2022-08-07T14:02:12.906Z,1133.60
2022-08-07T14:05:02.439Z,1133.80
2022-08-07T14:08:00.123Z,1129.40
2022-08-07T14:10:41.969Z,1131.97
2022-08-07T14:13:21.732Z,1132.13
2022-08-07T14:16:12.392Z,1131.13
2022-08-07T14:18:57.273Z,1131.67
2022-08-07T14:22:03.526Z,1123.50
2022-08-07T14:24:33.321Z,1120.87
2022-08-07T14:30:06.394Z,1116.00
2022-08-07T14:32:46.790Z,1119.63
2022-08-07T14:35:44.898Z,1117.03
2022-08-07T14:38:30.264Z,1112.90
2022-08-07T14:41:12.319Z,1110.23
2022-08-07T14:46:51.936Z,1113.13
2022-08-07T14:49:57.418Z,1113.80
2022-08-07T14:52:28.909Z,1109.10
2022-08-07T14:55:02.481Z,1113.77
2022-08-07T14:57:58.683Z,1103.00
2022-08-07T15:00:31.298Z,1109.00
2022-08-07T15:03:16.668Z,1099.43
2022-08-07T15:05:55.354Z,1105.43
2022-08-07T15:08:50.168Z,1104.60
2022-08-07T15:11:54.285Z,1097.87
2022-08-07T15:14:57.698Z,1102.30
2022-08-07T15:17:54.575Z,1099.33
2022-08-07T15:20:33.339Z,1107.27
2022-08-07T15:25:14.181Z,1101.90
2022-08-07T15:26:43.734Z,1095.90
2022-08-07T15:30:06.419Z,1092.97
2022-08-07T15:35:05.282Z,1100.17
2022-08-07T15:40:35.270Z,1092.27
2022-08-07T15:43:53.373Z,1085.70
2022-08-07T15:46:31.857Z,1081.80
2022-08-07T15:49:16.669Z,1085.20
2022-08-07T15:54:34.541Z,1089.57
2022-08-07T15:57:40.287Z,1085.63
2022-08-07T16:00:04.441Z,1091.63
2022-08-07T16:02:49.303Z,1086.77
2022-08-07T16:05:23.068Z,1091.00
2022-08-07T16:08:30.742Z,1094.07
2022-08-07T16:10:52.043Z,1093.07
2022-08-07T16:13:57.854Z,1083.67
2022-08-07T16:16:47.965Z,1095.67
2022-08-07T16:19:16.917Z,1091.73
2022-08-07T16:22:19.443Z,1102.00
2022-08-07T16:25:09.021Z,1095.57
2022-08-07T16:29:18.640Z,1101.97
2022-08-07T16:31:51.108Z,1114.67
2022-08-07T16:34:23.619Z,1082.23
2022-08-07T16:37:03.009Z,1100.27
2022-08-07T16:40:28.623Z,1119.90
2022-08-07T16:43:09.397Z,1116.07
2022-08-07T16:46:33.542Z,1113.43
2022-08-07T16:50:29.278Z,1107.83
2022-08-07T16:52:50.817Z,1080.43
2022-08-07T16:55:48.068Z,1127.43
2022-08-07T16:58:27.485Z,1122.23
2022-08-07T17:01:07.896Z,1162.13
2022-08-07T17:03:59.854Z,1120.03
2022-08-07T17:06:44.569Z,1126.70
2022-08-07T17:10:05.448Z,1109.10
2022-08-07T17:13:12.030Z,1108.73
2022-08-07T17:15:50.802Z,1044.27
2022-08-07T17:18:34.952Z,1076.23
2022-08-07T17:21:19.034Z,1101.43
2022-08-07T17:24:05.871Z,1093.40
2022-08-07T17:27:05.370Z,1114.90
2022-08-07T17:30:15.339Z,1129.00
2022-08-07T17:34:08.545Z,1121.23
2022-08-07T17:36:06.018Z,1089.30
2022-08-07T17:39:10.572Z,1124.87
2022-08-07T17:42:08.763Z,1141.47
2022-08-07T17:44:50.587Z,1074.30
2022-08-07T17:47:38.002Z,1097.47
2022-08-07T17:50:19.977Z,1140.07
2022-08-07T17:53:07.883Z,1156.10
2022-08-07T17:56:26.179Z,1088.80
2022-08-07T17:58:59.168Z,1102.97
2022-08-07T18:02:04.675Z,1144.73
2022-08-07T18:04:50.422Z,1156.63
2022-08-07T18:07:38.201Z,1136.00
2022-08-07T18:12:06.246Z,1110.70
2022-08-07T18:14:03.698Z,1104.67
2022-08-07T18:16:58.320Z,1089.27
2022-08-07T18:21:02.973Z,1090.23
2022-08-07T18:22:53.121Z,1089.57
2022-08-07T18:25:40.307Z,1086.10
2022-08-07T18:28:35.322Z,1090.83
2022-08-07T18:31:26.788Z,1091.57
2022-08-07T18:34:35.938Z,1090.33
2022-08-07T18:38:55.411Z,1091.80
2022-08-07T18:40:43.089Z,1090.07
2022-08-07T18:43:51.045Z,1094.10
2022-08-07T18:46:51.267Z,1092.23
2022-08-07T18:50:30.760Z,1100.57
2022-08-07T18:53:06.164Z,1095.80
2022-08-07T18:56:00.264Z,1093.20
2022-08-07T18:58:35.861Z,1096.60
2022-08-07T19:02:18.291Z,1103.63
2022-08-07T19:05:15.600Z,1095.67
2022-08-07T19:08:14.816Z,1097.70
2022-08-07T19:10:52.645Z,1094.23
2022-08-07T19:13:27.754Z,1091.50
2022-08-07T19:17:04.802Z,1102.67
2022-08-07T19:19:33.934Z,1095.30
2022-08-07T19:22:30.990Z,1095.50
2022-08-07T19:25:05.659Z,1091.80
2022-08-07T19:28:57.819Z,1095.97
2022-08-07T19:31:05.964Z,1090.73
2022-08-07T19:33:33.643Z,1096.87
2022-08-07T19:36:08.733Z,1092.37
2022-08-07T19:38:53.365Z,1089.77
2022-08-07T19:41:39.230Z,1092.07
2022-08-07T19:44:21.813Z,1090.30
2022-08-07T19:46:58.021Z,1091.57
2022-08-07T19:49:58.515Z,1087.60
2022-08-07T19:52:23.691Z,1078.10
2022-08-07T19:54:57.390Z,1076.33
2022-08-07T19:58:00.290Z,1084.53
2022-08-07T20:00:53.076Z,1087.17
2022-08-07T20:03:33.929Z,1083.27
2022-08-07T20:06:15.265Z,1084.60
2022-08-07T20:08:50.378Z,1083.93
2022-08-07T20:12:01.593Z,1090.07
2022-08-07T20:14:31.233Z,1076.00
2022-08-07T20:17:05.607Z,1070.23
2022-08-07T20:19:49.465Z,1083.53
2022-08-07T20:22:34.141Z,1086.97
2022-08-07T20:25:19.287Z,1076.80
2022-08-07T20:27:58.385Z,1078.83
2022-08-07T20:30:37.269Z,1083.27
2022-08-07T20:33:24.247Z,1082.43
2022-08-07T20:36:03.799Z,1083.33
2022-08-07T20:38:35.351Z,1084.10
2022-08-07T20:41:37.821Z,1078.90
2022-08-07T20:44:13.044Z,1081.60
2022-08-07T20:46:46.815Z,1079.87
2022-08-07T20:49:58.423Z,1081.27
2022-08-07T20:52:30.093Z,1075.93
2022-08-07T20:55:17.907Z,1080.17
2022-08-07T20:58:02.671Z,1079.17
2022-08-07T21:00:42.967Z,1075.47
2022-08-07T21:03:19.248Z,1080.77
2022-08-07T21:06:21.781Z,1078.77
2022-08-07T21:09:13.620Z,1080.20
2022-08-07T21:11:51.032Z,1075.33
2022-08-07T21:14:34.204Z,1078.13
2022-08-07T21:18:20.429Z,1070.50
2022-08-07T21:20:19.078Z,1072.87
2022-08-07T21:23:08.154Z,1077.13
2022-08-07T21:26:11.022Z,1076.23
2022-08-07T21:28:51.150Z,1080.63
2022-08-07T21:31:49.501Z,1074.00
2022-08-07T21:34:32.216Z,1076.80
2022-08-07T21:37:09.073Z,1083.60
2022-08-07T21:40:13.807Z,1078.67
2022-08-07T21:42:46.814Z,1079.77
2022-08-07T21:46:09.180Z,1081.20
2022-08-07T21:49:00.437Z,1077.13
2022-08-07T21:51:32.171Z,1082.30
2022-08-07T21:54:14.277Z,1078.47
2022-08-07T21:57:39.913Z,1075.87
2022-08-07T22:00:22.202Z,1075.13
2022-08-07T22:03:10.338Z,1072.73
2022-08-07T22:05:55.633Z,1074.30
2022-08-07T22:08:33.571Z,1076.50
2022-08-07T22:11:08.425Z,1071.93
2022-08-07T22:13:50.207Z,1075.70
2022-08-07T22:16:46.168Z,1080.77
2022-08-07T22:19:43.065Z,1073.77
2022-08-07T22:22:20.858Z,1079.07
2022-08-07T22:25:12.056Z,1068.77
2022-08-07T22:28:07.727Z,1076.63
2022-08-07T22:30:53.042Z,1066.37
2022-08-07T22:33:53.617Z,1072.93
2022-08-07T22:36:30.352Z,1068.97
2022-08-07T22:39:25.932Z,1073.37
2022-08-07T22:42:19.401Z,1074.87
2022-08-07T22:44:58.402Z,1070.30
2022-08-07T22:47:53.885Z,1075.30
2022-08-07T22:50:35.914Z,1072.77
2022-08-07T22:54:06.775Z,1072.97
2022-08-07T22:56:57.317Z,1068.07
2022-08-07T23:00:00.420Z,1072.43
2022-08-07T23:03:04.507Z,1070.50
2022-08-07T23:06:09.268Z,1074.30
2022-08-07T23:10:06.250Z,1063.77
2022-08-07T23:12:34.071Z,1077.17
2022-08-07T23:15:21.881Z,1068.83
2022-08-07T23:18:33.207Z,1067.00
2022-08-07T23:21:23.127Z,1066.93
2022-08-07T23:24:18.923Z,1066.33
2022-08-07T23:26:55.081Z,1062.87
2022-08-07T23:29:43.665Z,1060.87
2022-08-07T23:34:21.451Z,1068.70
2022-08-07T23:36:22.821Z,1054.60
2022-08-07T23:39:09.702Z,1055.33
2022-08-07T23:42:05.881Z,1056.67
2022-08-07T23:45:33.293Z,1055.10
2022-08-07T23:48:58.764Z,1059.57
2022-08-07T23:53:00.785Z,1058.80
2022-08-07T23:55:00.907Z,1056.87
2022-08-07T23:57:42.745Z,1058.47
